sensor_id;sensor_type;location;lat;lon;timestamp;P1;durP1;ratioP1;P2;durP2;ratioP2
49378;SDS011;35254;47.990;-1.608;2023-12-22T00:01:41;13.70;;;3.50;;
49378;SDS011;35254;47.990;-1.608;2023-12-22T00:04:07;9.65;;;3.95;;
49378;SDS011;35254;47.990;-1.608;2023-12-22T00:06:32;10.32;;;3.25;;
49378;SDS011;35254;47.990;-1.608;2023-12-22T00:08:58;11.75;;;3.13;;
49378;SDS011;35254;47.990;-1.608;2023-12-22T00:11:24;6.68;;;2.95;;
49378;SDS011;35254;47.990;-1.608;2023-12-22T00:13:49;11.82;;;4.47;;
49378;SDS011;35254;47.990;-1.608;2023-12-22T00:16:15;8.98;;;3.20;;
49378;SDS011;35254;47.990;-1.608;2023-12-22T00:18:41;8.02;;;3.00;;
49378;SDS011;35254;47.990;-1.608;2023-12-22T00:21:12;5.20;;;2.50;;
49378;SDS011;35254;47.990;-1.608;2023-12-22T00:23:38;5.43;;;2.35;;
49378;SDS011;35254;47.990;-1.608;2023-12-22T00:26:05;6.63;;;3.05;;
49378;SDS011;35254;47.990;-1.608;2023-12-22T00:28:30;8.77;;;3.70;;
49378;SDS011;35254;47.990;-1.608;2023-12-22T00:30:59;5.28;;;2.22;;
49378;SDS011;35254;47.990;-1.608;2023-12-22T00:33:25;8.00;;;2.58;;
49378;SDS011;35254;47.990;-1.608;2023-12-22T00:35:51;7.97;;;2.88;;
49378;SDS011;35254;47.990;-1.608;2023-12-22T00:38:17;4.93;;;2.30;;
49378;SDS011;35254;47.990;-1.608;2023-12-22T00:40:42;7.88;;;2.80;;
49378;SDS011;35254;47.990;-1.608;2023-12-22T00:43:08;8.93;;;2.75;;
49378;SDS011;35254;47.990;-1.608;2023-12-22T00:45:33;6.80;;;1.85;;
49378;SDS011;35254;47.990;-1.608;2023-12-22T00:47:59;7.75;;;2.95;;
49378;SDS011;35254;47.990;-1.608;2023-12-22T00:50:25;5.68;;;2.13;;
49378;SDS011;35254;47.990;-1.608;2023-12-22T00:52:50;4.45;;;2.40;;
49378;SDS011;35254;47.990;-1.608;2023-12-22T00:55:16;6.10;;;3.42;;
49378;SDS011;35254;47.990;-1.608;2023-12-22T00:57:42;5.35;;;2.17;;
49378;SDS011;35254;47.990;-1.608;2023-12-22T01:00:08;5.50;;;2.42;;
49378;SDS011;35254;47.990;-1.608;2023-12-22T01:02:37;10.98;;;2.90;;
49378;SDS011;35254;47.990;-1.608;2023-12-22T01:05:03;8.95;;;2.50;;
49378;SDS011;35254;47.990;-1.608;2023-12-22T01:07:29;5.00;;;2.17;;
49378;SDS011;35254;47.990;-1.608;2023-12-22T01:09:55;4.93;;;2.33;;
49378;SDS011;35254;47.990;-1.608;2023-12-22T01:12:21;4.47;;;2.00;;
49378;SDS011;35254;47.990;-1.608;2023-12-22T01:14:46;4.20;;;1.70;;
49378;SDS011;35254;47.990;-1.608;2023-12-22T01:17:15;4.30;;;2.65;;
49378;SDS011;35254;47.990;-1.608;2023-12-22T01:19:41;6.22;;;2.55;;
49378;SDS011;35254;47.990;-1.608;2023-12-22T01:22:06;5.05;;;2.60;;
49378;SDS011;35254;47.990;-1.608;2023-12-22T01:24:32;7.25;;;2.38;;
49378;SDS011;35254;47.990;-1.608;2023-12-22T01:26:57;6.97;;;2.38;;
49378;SDS011;35254;47.990;-1.608;2023-12-22T01:29:24;6.03;;;2.03;;
49378;SDS011;35254;47.990;-1.608;2023-12-22T01:31:50;4.88;;;2.00;;
49378;SDS011;35254;47.990;-1.608;2023-12-22T01:34:15;4.68;;;2.03;;
49378;SDS011;35254;47.990;-1.608;2023-12-22T01:36:41;4.03;;;1.50;;
49378;SDS011;35254;47.990;-1.608;2023-12-22T01:39:06;5.50;;;2.13;;
49378;SDS011;35254;47.990;-1.608;2023-12-22T01:41:32;6.65;;;2.33;;
49378;SDS011;35254;47.990;-1.608;2023-12-22T01:43:58;7.65;;;2.78;;
49378;SDS011;35254;47.990;-1.608;2023-12-22T01:46:23;5.47;;;1.88;;
49378;SDS011;35254;47.990;-1.608;2023-12-22T01:48:49;5.07;;;2.00;;
49378;SDS011;35254;47.990;-1.608;2023-12-22T01:51:15;3.75;;;1.90;;
49378;SDS011;35254;47.990;-1.608;2023-12-22T01:53:42;5.13;;;2.78;;
49378;SDS011;35254;47.990;-1.608;2023-12-22T01:56:07;3.70;;;1.90;;
49378;SDS011;35254;47.990;-1.608;2023-12-22T01:58:34;7.68;;;2.35;;
49378;SDS011;35254;47.990;-1.608;2023-12-22T02:01:02;4.70;;;1.88;;
49378;SDS011;35254;47.990;-1.608;2023-12-22T02:03:28;6.13;;;1.75;;
49378;SDS011;35254;47.990;-1.608;2023-12-22T02:05:55;5.45;;;2.00;;
49378;SDS011;35254;47.990;-1.608;2023-12-22T02:08:21;2.65;;;1.50;;
49378;SDS011;35254;47.990;-1.608;2023-12-22T02:10:49;5.22;;;2.38;;
49378;SDS011;35254;47.990;-1.608;2023-12-22T02:13:14;4.40;;;1.75;;
49378;SDS011;35254;47.990;-1.608;2023-12-22T02:15:40;5.00;;;1.30;;
49378;SDS011;35254;47.990;-1.608;2023-12-22T02:18:10;5.15;;;1.80;;
49378;SDS011;35254;47.990;-1.608;2023-12-22T02:20:39;2.95;;;1.52;;
49378;SDS011;35254;47.990;-1.608;2023-12-22T02:23:06;3.28;;;1.33;;
49378;SDS011;35254;47.990;-1.608;2023-12-22T02:25:31;4.22;;;1.67;;
49378;SDS011;35254;47.990;-1.608;2023-12-22T02:27:58;2.85;;;1.35;;
49378;SDS011;35254;47.990;-1.608;2023-12-22T02:30:39;3.47;;;2.00;;
49378;SDS011;35254;47.990;-1.608;2023-12-22T02:33:17;2.78;;;1.63;;
49378;SDS011;35254;47.990;-1.608;2023-12-22T02:35:43;3.67;;;1.80;;
49378;SDS011;35254;47.990;-1.608;2023-12-22T02:38:10;2.90;;;1.75;;
49378;SDS011;35254;47.990;-1.608;2023-12-22T02:40:37;2.78;;;1.38;;
49378;SDS011;35254;47.990;-1.608;2023-12-22T02:43:03;4.60;;;1.58;;
49378;SDS011;35254;47.990;-1.608;2023-12-22T02:45:31;3.10;;;1.48;;
49378;SDS011;35254;47.990;-1.608;2023-12-22T02:47:57;3.65;;;1.52;;
49378;SDS011;35254;47.990;-1.608;2023-12-22T02:50:23;4.45;;;1.60;;
49378;SDS011;35254;47.990;-1.608;2023-12-22T02:52:48;3.10;;;1.75;;
49378;SDS011;35254;47.990;-1.608;2023-12-22T02:55:14;3.13;;;1.50;;
49378;SDS011;35254;47.990;-1.608;2023-12-22T02:57:40;2.67;;;1.52;;
49378;SDS011;35254;47.990;-1.608;2023-12-22T03:00:05;3.78;;;1.13;;
49378;SDS011;35254;47.990;-1.608;2023-12-22T03:02:32;4.90;;;2.63;;
49378;SDS011;35254;47.990;-1.608;2023-12-22T03:04:57;4.85;;;2.03;;
49378;SDS011;35254;47.990;-1.608;2023-12-22T03:07:23;1.85;;;1.08;;
49378;SDS011;35254;47.990;-1.608;2023-12-22T03:09:49;2.92;;;1.40;;
49378;SDS011;35254;47.990;-1.608;2023-12-22T03:12:14;4.95;;;1.92;;
49378;SDS011;35254;47.990;-1.608;2023-12-22T03:14:40;2.45;;;1.33;;
49378;SDS011;35254;47.990;-1.608;2023-12-22T03:17:06;4.78;;;1.55;;
49378;SDS011;35254;47.990;-1.608;2023-12-22T03:19:32;4.05;;;1.23;;
49378;SDS011;35254;47.990;-1.608;2023-12-22T03:21:58;2.33;;;1.30;;
49378;SDS011;35254;47.990;-1.608;2023-12-22T03:24:25;4.30;;;1.38;;
49378;SDS011;35254;47.990;-1.608;2023-12-22T03:26:52;4.38;;;1.45;;
49378;SDS011;35254;47.990;-1.608;2023-12-22T03:29:18;3.95;;;1.40;;
49378;SDS011;35254;47.990;-1.608;2023-12-22T03:31:44;2.03;;;1.27;;
49378;SDS011;35254;47.990;-1.608;2023-12-22T03:34:10;2.92;;;1.42;;
49378;SDS011;35254;47.990;-1.608;2023-12-22T03:36:36;4.97;;;1.42;;
49378;SDS011;35254;47.990;-1.608;2023-12-22T03:39:02;2.47;;;1.23;;
49378;SDS011;35254;47.990;-1.608;2023-12-22T03:41:29;2.85;;;0.95;;
49378;SDS011;35254;47.990;-1.608;2023-12-22T03:43:55;2.63;;;1.60;;
49378;SDS011;35254;47.990;-1.608;2023-12-22T03:46:21;1.92;;;1.30;;
49378;SDS011;35254;47.990;-1.608;2023-12-22T03:48:47;3.90;;;1.67;;
49378;SDS011;35254;47.990;-1.608;2023-12-22T03:51:12;2.72;;;1.58;;
49378;SDS011;35254;47.990;-1.608;2023-12-22T03:53:40;3.85;;;1.58;;
49378;SDS011;35254;47.990;-1.608;2023-12-22T03:56:06;3.35;;;1.50;;
49378;SDS011;35254;47.990;-1.608;2023-12-22T03:58:33;5.72;;;1.90;;
49378;SDS011;35254;47.990;-1.608;2023-12-22T04:00:58;2.80;;;1.30;;
49378;SDS011;35254;47.990;-1.608;2023-12-22T04:03:24;5.28;;;1.30;;
49378;SDS011;35254;47.990;-1.608;2023-12-22T04:05:49;2.58;;;1.00;;
49378;SDS011;35254;47.990;-1.608;2023-12-22T04:08:15;2.83;;;1.48;;
49378;SDS011;35254;47.990;-1.608;2023-12-22T04:10:40;2.47;;;1.15;;
49378;SDS011;35254;47.990;-1.608;2023-12-22T04:13:08;4.68;;;1.50;;
49378;SDS011;35254;47.990;-1.608;2023-12-22T04:15:34;6.78;;;1.05;;
49378;SDS011;35254;47.990;-1.608;2023-12-22T04:17:59;1.63;;;0.98;;
49378;SDS011;35254;47.990;-1.608;2023-12-22T04:20:25;2.78;;;1.23;;
49378;SDS011;35254;47.990;-1.608;2023-12-22T04:22:50;3.42;;;1.10;;
49378;SDS011;35254;47.990;-1.608;2023-12-22T04:25:16;3.25;;;1.00;;
49378;SDS011;35254;47.990;-1.608;2023-12-22T04:27:42;4.53;;;1.40;;
49378;SDS011;35254;47.990;-1.608;2023-12-22T04:30:08;3.65;;;1.52;;
49378;SDS011;35254;47.990;-1.608;2023-12-22T04:32:34;2.25;;;1.00;;
49378;SDS011;35254;47.990;-1.608;2023-12-22T04:35:00;2.85;;;1.20;;
49378;SDS011;35254;47.990;-1.608;2023-12-22T04:37:25;2.50;;;1.02;;
49378;SDS011;35254;47.990;-1.608;2023-12-22T04:39:51;4.13;;;2.30;;
49378;SDS011;35254;47.990;-1.608;2023-12-22T04:42:17;1.80;;;1.17;;
49378;SDS011;35254;47.990;-1.608;2023-12-22T04:44:43;3.25;;;1.45;;
49378;SDS011;35254;47.990;-1.608;2023-12-22T04:47:09;5.00;;;1.27;;
49378;SDS011;35254;47.990;-1.608;2023-12-22T04:49:34;2.63;;;1.27;;
49378;SDS011;35254;47.990;-1.608;2023-12-22T04:52:00;2.55;;;1.05;;
49378;SDS011;35254;47.990;-1.608;2023-12-22T04:54:25;4.32;;;1.48;;
49378;SDS011;35254;47.990;-1.608;2023-12-22T04:56:51;1.27;;;0.95;;
49378;SDS011;35254;47.990;-1.608;2023-12-22T04:59:17;5.65;;;1.10;;
49378;SDS011;35254;47.990;-1.608;2023-12-22T05:01:42;1.70;;;0.95;;
49378;SDS011;35254;47.990;-1.608;2023-12-22T05:04:09;3.72;;;0.80;;
49378;SDS011;35254;47.990;-1.608;2023-12-22T05:06:35;5.05;;;1.13;;
49378;SDS011;35254;47.990;-1.608;2023-12-22T05:09:00;2.38;;;0.93;;
49378;SDS011;35254;47.990;-1.608;2023-12-22T05:11:27;3.03;;;1.17;;
49378;SDS011;35254;47.990;-1.608;2023-12-22T05:13:53;1.20;;;1.10;;
49378;SDS011;35254;47.990;-1.608;2023-12-22T05:16:18;1.20;;;0.90;;
49378;SDS011;35254;47.990;-1.608;2023-12-22T05:18:44;1.60;;;0.75;;
49378;SDS011;35254;47.990;-1.608;2023-12-22T05:21:13;1.65;;;0.70;;
49378;SDS011;35254;47.990;-1.608;2023-12-22T05:23:39;2.70;;;1.00;;
49378;SDS011;35254;47.990;-1.608;2023-12-22T05:26:05;2.50;;;0.75;;
49378;SDS011;35254;47.990;-1.608;2023-12-22T05:28:31;3.28;;;0.95;;
49378;SDS011;35254;47.990;-1.608;2023-12-22T05:30:57;1.70;;;0.90;;
49378;SDS011;35254;47.990;-1.608;2023-12-22T05:33:23;2.05;;;1.15;;
49378;SDS011;35254;47.990;-1.608;2023-12-22T05:35:48;3.17;;;0.80;;
49378;SDS011;35254;47.990;-1.608;2023-12-22T05:38:14;3.55;;;1.25;;
49378;SDS011;35254;47.990;-1.608;2023-12-22T05:40:39;2.33;;;1.05;;
49378;SDS011;35254;47.990;-1.608;2023-12-22T05:43:05;4.30;;;1.05;;
49378;SDS011;35254;47.990;-1.608;2023-12-22T05:45:31;1.17;;;0.65;;
49378;SDS011;35254;47.990;-1.608;2023-12-22T05:47:56;4.15;;;0.80;;
49378;SDS011;35254;47.990;-1.608;2023-12-22T05:50:22;3.50;;;0.88;;
49378;SDS011;35254;47.990;-1.608;2023-12-22T05:52:48;2.05;;;0.70;;
49378;SDS011;35254;47.990;-1.608;2023-12-22T05:55:14;2.35;;;0.95;;
49378;SDS011;35254;47.990;-1.608;2023-12-22T05:57:40;2.95;;;1.45;;
49378;SDS011;35254;47.990;-1.608;2023-12-22T06:00:05;1.73;;;0.45;;
49378;SDS011;35254;47.990;-1.608;2023-12-22T06:02:32;1.85;;;0.60;;
49378;SDS011;35254;47.990;-1.608;2023-12-22T06:04:59;1.17;;;0.63;;
49378;SDS011;35254;47.990;-1.608;2023-12-22T06:07:24;1.48;;;0.70;;
49378;SDS011;35254;47.990;-1.608;2023-12-22T06:09:51;1.73;;;0.80;;
49378;SDS011;35254;47.990;-1.608;2023-12-22T06:12:16;0.88;;;0.60;;
49378;SDS011;35254;47.990;-1.608;2023-12-22T06:14:42;2.78;;;1.00;;
49378;SDS011;35254;47.990;-1.608;2023-12-22T06:17:07;2.72;;;0.85;;
49378;SDS011;35254;47.990;-1.608;2023-12-22T06:19:35;0.57;;;0.30;;
49378;SDS011;35254;47.990;-1.608;2023-12-22T06:22:00;2.53;;;0.82;;
49378;SDS011;35254;47.990;-1.608;2023-12-22T06:24:26;4.13;;;0.77;;
49378;SDS011;35254;47.990;-1.608;2023-12-22T06:26:52;1.15;;;0.50;;
49378;SDS011;35254;47.990;-1.608;2023-12-22T06:29:18;1.40;;;0.45;;
49378;SDS011;35254;47.990;-1.608;2023-12-22T06:31:43;1.38;;;0.50;;
49378;SDS011;35254;47.990;-1.608;2023-12-22T06:34:09;2.05;;;0.68;;
49378;SDS011;35254;47.990;-1.608;2023-12-22T06:36:35;1.05;;;0.55;;
49378;SDS011;35254;47.990;-1.608;2023-12-22T06:39:00;5.55;;;0.73;;
49378;SDS011;35254;47.990;-1.608;2023-12-22T06:41:26;1.85;;;0.57;;
49378;SDS011;35254;47.990;-1.608;2023-12-22T06:43:53;1.15;;;0.60;;
49378;SDS011;35254;47.990;-1.608;2023-12-22T06:46:21;1.65;;;0.70;;
49378;SDS011;35254;47.990;-1.608;2023-12-22T06:48:47;1.55;;;0.63;;
49378;SDS011;35254;47.990;-1.608;2023-12-22T06:51:21;2.58;;;0.85;;
49378;SDS011;35254;47.990;-1.608;2023-12-22T06:53:47;0.85;;;0.60;;
49378;SDS011;35254;47.990;-1.608;2023-12-22T06:56:17;1.38;;;0.55;;
49378;SDS011;35254;47.990;-1.608;2023-12-22T06:58:47;2.47;;;0.60;;
49378;SDS011;35254;47.990;-1.608;2023-12-22T07:01:24;2.92;;;1.20;;
49378;SDS011;35254;47.990;-1.608;2023-12-22T07:03:51;1.75;;;0.65;;
49378;SDS011;35254;47.990;-1.608;2023-12-22T07:06:18;1.25;;;0.70;;
49378;SDS011;35254;47.990;-1.608;2023-12-22T07:08:44;1.50;;;0.50;;
49378;SDS011;35254;47.990;-1.608;2023-12-22T07:11:28;0.43;;;0.43;;
49378;SDS011;35254;47.990;-1.608;2023-12-22T07:13:54;1.55;;;0.50;;
49378;SDS011;35254;47.990;-1.608;2023-12-22T07:16:20;0.65;;;0.55;;
49378;SDS011;35254;47.990;-1.608;2023-12-22T07:18:45;1.15;;;0.30;;
49378;SDS011;35254;47.990;-1.608;2023-12-22T07:21:15;1.02;;;0.52;;
49378;SDS011;35254;47.990;-1.608;2023-12-22T07:23:42;1.38;;;0.80;;
49378;SDS011;35254;47.990;-1.608;2023-12-22T07:26:09;2.95;;;0.88;;
49378;SDS011;35254;47.990;-1.608;2023-12-22T07:28:35;6.60;;;0.68;;
49378;SDS011;35254;47.990;-1.608;2023-12-22T07:31:00;3.08;;;0.60;;
49378;SDS011;35254;47.990;-1.608;2023-12-22T07:33:26;1.48;;;0.70;;
49378;SDS011;35254;47.990;-1.608;2023-12-22T07:35:51;5.05;;;1.00;;
49378;SDS011;35254;47.990;-1.608;2023-12-22T07:38:17;0.98;;;0.80;;
49378;SDS011;35254;47.990;-1.608;2023-12-22T07:40:42;3.50;;;0.90;;
49378;SDS011;35254;47.990;-1.608;2023-12-22T07:43:08;0.90;;;0.70;;
49378;SDS011;35254;47.990;-1.608;2023-12-22T07:45:34;3.40;;;1.20;;
49378;SDS011;35254;47.990;-1.608;2023-12-22T07:47:59;3.38;;;1.35;;
49378;SDS011;35254;47.990;-1.608;2023-12-22T07:50:25;4.75;;;1.00;;
49378;SDS011;35254;47.990;-1.608;2023-12-22T07:52:52;2.22;;;0.88;;
49378;SDS011;35254;47.990;-1.608;2023-12-22T07:55:18;3.92;;;0.88;;
49378;SDS011;35254;47.990;-1.608;2023-12-22T07:57:43;3.88;;;0.80;;
49378;SDS011;35254;47.990;-1.608;2023-12-22T08:00:10;4.60;;;1.67;;
49378;SDS011;35254;47.990;-1.608;2023-12-22T08:02:36;2.50;;;0.63;;
49378;SDS011;35254;47.990;-1.608;2023-12-22T08:05:03;1.77;;;0.68;;
49378;SDS011;35254;47.990;-1.608;2023-12-22T08:07:29;1.85;;;0.52;;
49378;SDS011;35254;47.990;-1.608;2023-12-22T08:09:55;5.25;;;1.00;;
49378;SDS011;35254;47.990;-1.608;2023-12-22T08:12:21;2.17;;;0.82;;
49378;SDS011;35254;47.990;-1.608;2023-12-22T08:14:47;5.25;;;1.05;;
49378;SDS011;35254;47.990;-1.608;2023-12-22T08:17:12;2.30;;;0.80;;
49378;SDS011;35254;47.990;-1.608;2023-12-22T08:19:38;4.70;;;0.95;;
49378;SDS011;35254;47.990;-1.608;2023-12-22T08:22:07;4.72;;;1.00;;
49378;SDS011;35254;47.990;-1.608;2023-12-22T08:24:38;5.90;;;1.25;;
49378;SDS011;35254;47.990;-1.608;2023-12-22T08:27:07;4.22;;;1.15;;
49378;SDS011;35254;47.990;-1.608;2023-12-22T08:29:32;5.68;;;1.23;;
49378;SDS011;35254;47.990;-1.608;2023-12-22T08:31:58;2.95;;;1.02;;
49378;SDS011;35254;47.990;-1.608;2023-12-22T08:34:25;7.63;;;1.60;;
49378;SDS011;35254;47.990;-1.608;2023-12-22T08:36:51;3.97;;;1.25;;
49378;SDS011;35254;47.990;-1.608;2023-12-22T08:39:17;2.78;;;1.00;;
49378;SDS011;35254;47.990;-1.608;2023-12-22T08:41:42;3.67;;;1.63;;
49378;SDS011;35254;47.990;-1.608;2023-12-22T08:44:08;2.75;;;1.05;;
49378;SDS011;35254;47.990;-1.608;2023-12-22T08:46:34;6.28;;;1.33;;
49378;SDS011;35254;47.990;-1.608;2023-12-22T08:49:00;5.03;;;1.58;;
49378;SDS011;35254;47.990;-1.608;2023-12-22T08:51:26;3.20;;;1.00;;
49378;SDS011;35254;47.990;-1.608;2023-12-22T08:53:53;7.47;;;1.23;;
49378;SDS011;35254;47.990;-1.608;2023-12-22T08:56:22;5.05;;;1.20;;
49378;SDS011;35254;47.990;-1.608;2023-12-22T08:58:48;2.25;;;0.95;;
49378;SDS011;35254;47.990;-1.608;2023-12-22T09:01:16;2.35;;;1.08;;
49378;SDS011;35254;47.990;-1.608;2023-12-22T09:03:42;3.88;;;1.13;;
49378;SDS011;35254;47.990;-1.608;2023-12-22T09:06:17;6.60;;;2.67;;
49378;SDS011;35254;47.990;-1.608;2023-12-22T09:08:44;5.68;;;1.80;;
49378;SDS011;35254;47.990;-1.608;2023-12-22T09:11:11;9.15;;;2.30;;
49378;SDS011;35254;47.990;-1.608;2023-12-22T09:13:37;4.75;;;1.60;;
49378;SDS011;35254;47.990;-1.608;2023-12-22T09:16:03;5.68;;;1.52;;
49378;SDS011;35254;47.990;-1.608;2023-12-22T09:18:30;5.05;;;1.30;;
49378;SDS011;35254;47.990;-1.608;2023-12-22T09:20:56;3.75;;;1.23;;
49378;SDS011;35254;47.990;-1.608;2023-12-22T09:23:22;3.00;;;1.30;;
49378;SDS011;35254;47.990;-1.608;2023-12-22T09:25:48;6.65;;;1.73;;
49378;SDS011;35254;47.990;-1.608;2023-12-22T09:28:14;8.57;;;1.73;;
49378;SDS011;35254;47.990;-1.608;2023-12-22T09:30:40;4.85;;;1.30;;
49378;SDS011;35254;47.990;-1.608;2023-12-22T09:33:06;4.30;;;1.13;;
49378;SDS011;35254;47.990;-1.608;2023-12-22T09:35:33;4.65;;;1.90;;
49378;SDS011;35254;47.990;-1.608;2023-12-22T09:37:58;8.98;;;2.13;;
49378;SDS011;35254;47.990;-1.608;2023-12-22T09:40:24;3.55;;;1.02;;
49378;SDS011;35254;47.990;-1.608;2023-12-22T09:42:49;7.32;;;1.35;;
49378;SDS011;35254;47.990;-1.608;2023-12-22T09:45:19;2.25;;;1.00;;
49378;SDS011;35254;47.990;-1.608;2023-12-22T09:47:46;8.52;;;1.83;;
49378;SDS011;35254;47.990;-1.608;2023-12-22T09:50:14;8.75;;;1.55;;
49378;SDS011;35254;47.990;-1.608;2023-12-22T09:52:41;3.58;;;1.60;;
49378;SDS011;35254;47.990;-1.608;2023-12-22T09:55:09;7.70;;;1.10;;
49378;SDS011;35254;47.990;-1.608;2023-12-22T09:57:35;5.75;;;1.50;;
49378;SDS011;35254;47.990;-1.608;2023-12-22T10:00:02;5.45;;;1.30;;
49378;SDS011;35254;47.990;-1.608;2023-12-22T10:02:31;5.63;;;1.52;;
49378;SDS011;35254;47.990;-1.608;2023-12-22T10:04:59;3.75;;;1.50;;
49378;SDS011;35254;47.990;-1.608;2023-12-22T10:07:25;6.47;;;1.38;;
49378;SDS011;35254;47.990;-1.608;2023-12-22T10:09:51;5.55;;;1.60;;
49378;SDS011;35254;47.990;-1.608;2023-12-22T10:12:20;3.45;;;1.20;;
49378;SDS011;35254;47.990;-1.608;2023-12-22T10:14:47;4.78;;;1.85;;
49378;SDS011;35254;47.990;-1.608;2023-12-22T10:17:13;8.07;;;2.17;;
49378;SDS011;35254;47.990;-1.608;2023-12-22T10:19:40;12.52;;;2.40;;
49378;SDS011;35254;47.990;-1.608;2023-12-22T10:22:05;8.15;;;1.70;;
49378;SDS011;35254;47.990;-1.608;2023-12-22T10:24:38;9.25;;;1.70;;
49378;SDS011;35254;47.990;-1.608;2023-12-22T10:27:12;5.97;;;1.70;;
49378;SDS011;35254;47.990;-1.608;2023-12-22T10:29:38;6.88;;;2.17;;
49378;SDS011;35254;47.990;-1.608;2023-12-22T10:32:05;6.68;;;1.75;;
49378;SDS011;35254;47.990;-1.608;2023-12-22T10:34:31;3.92;;;1.40;;
49378;SDS011;35254;47.990;-1.608;2023-12-22T10:36:58;5.20;;;1.52;;
49378;SDS011;35254;47.990;-1.608;2023-12-22T10:39:28;9.25;;;2.03;;
49378;SDS011;35254;47.990;-1.608;2023-12-22T10:41:55;7.80;;;2.05;;
49378;SDS011;35254;47.990;-1.608;2023-12-22T10:44:25;5.80;;;1.48;;
49378;SDS011;35254;47.990;-1.608;2023-12-22T10:46:51;3.90;;;1.52;;
49378;SDS011;35254;47.990;-1.608;2023-12-22T10:49:18;2.25;;;1.25;;
49378;SDS011;35254;47.990;-1.608;2023-12-22T10:51:44;6.07;;;1.85;;
49378;SDS011;35254;47.990;-1.608;2023-12-22T10:54:10;6.90;;;1.90;;
49378;SDS011;35254;47.990;-1.608;2023-12-22T10:56:35;7.20;;;1.35;;
49378;SDS011;35254;47.990;-1.608;2023-12-22T10:59:02;7.93;;;2.17;;
49378;SDS011;35254;47.990;-1.608;2023-12-22T11:01:28;3.35;;;1.33;;
49378;SDS011;35254;47.990;-1.608;2023-12-22T11:03:54;7.07;;;1.48;;
49378;SDS011;35254;47.990;-1.608;2023-12-22T11:06:26;4.63;;;1.55;;
49378;SDS011;35254;47.990;-1.608;2023-12-22T11:08:53;3.80;;;1.95;;
49378;SDS011;35254;47.990;-1.608;2023-12-22T11:11:34;6.32;;;2.15;;
49378;SDS011;35254;47.990;-1.608;2023-12-22T11:14:04;5.50;;;1.40;;
49378;SDS011;35254;47.990;-1.608;2023-12-22T11:16:32;3.72;;;1.33;;
49378;SDS011;35254;47.990;-1.608;2023-12-22T11:18:59;8.55;;;1.63;;
49378;SDS011;35254;47.990;-1.608;2023-12-22T11:21:28;12.50;;;2.77;;
49378;SDS011;35254;47.990;-1.608;2023-12-22T11:23:55;9.25;;;2.40;;
49378;SDS011;35254;47.990;-1.608;2023-12-22T11:26:23;10.18;;;3.38;;
49378;SDS011;35254;47.990;-1.608;2023-12-22T11:28:49;20.35;;;8.18;;
49378;SDS011;35254;47.990;-1.608;2023-12-22T11:31:16;17.05;;;8.07;;
49378;SDS011;35254;47.990;-1.608;2023-12-22T11:33:46;19.30;;;7.80;;
49378;SDS011;35254;47.990;-1.608;2023-12-22T11:36:13;10.45;;;6.22;;
49378;SDS011;35254;47.990;-1.608;2023-12-22T11:38:40;16.10;;;6.32;;
49378;SDS011;35254;47.990;-1.608;2023-12-22T11:41:07;10.35;;;4.97;;
49378;SDS011;35254;47.990;-1.608;2023-12-22T11:43:49;15.68;;;5.93;;
49378;SDS011;35254;47.990;-1.608;2023-12-22T11:46:16;21.35;;;5.80;;
49378;SDS011;35254;47.990;-1.608;2023-12-22T11:48:48;15.65;;;4.95;;
49378;SDS011;35254;47.990;-1.608;2023-12-22T11:51:15;9.27;;;4.68;;
49378;SDS011;35254;47.990;-1.608;2023-12-22T11:53:41;14.27;;;5.72;;
49378;SDS011;35254;47.990;-1.608;2023-12-22T11:56:08;9.73;;;3.92;;
49378;SDS011;35254;47.990;-1.608;2023-12-22T12:01:10;6.07;;;3.28;;
49378;SDS011;35254;47.990;-1.608;2023-12-22T12:03:40;9.77;;;3.65;;
49378;SDS011;35254;47.990;-1.608;2023-12-22T12:08:54;7.90;;;3.40;;
49378;SDS011;35254;47.990;-1.608;2023-12-22T12:11:21;10.65;;;3.63;;
49378;SDS011;35254;47.990;-1.608;2023-12-22T12:13:47;9.65;;;4.35;;
49378;SDS011;35254;47.990;-1.608;2023-12-22T12:16:14;8.57;;;3.40;;
49378;SDS011;35254;47.990;-1.608;2023-12-22T12:18:44;10.17;;;3.37;;
49378;SDS011;35254;47.990;-1.608;2023-12-22T12:21:10;13.75;;;3.85;;
49378;SDS011;35254;47.990;-1.608;2023-12-22T12:23:37;8.50;;;3.28;;
49378;SDS011;35254;47.990;-1.608;2023-12-22T12:26:05;9.05;;;3.47;;
49378;SDS011;35254;47.990;-1.608;2023-12-22T12:28:32;9.43;;;3.00;;
49378;SDS011;35254;47.990;-1.608;2023-12-22T12:30:59;7.40;;;2.35;;
49378;SDS011;35254;47.990;-1.608;2023-12-22T12:33:26;6.90;;;2.70;;
49378;SDS011;35254;47.990;-1.608;2023-12-22T12:35:53;14.95;;;3.28;;
49378;SDS011;35254;47.990;-1.608;2023-12-22T12:38:36;5.97;;;2.67;;
49378;SDS011;35254;47.990;-1.608;2023-12-22T12:41:09;6.53;;;2.45;;
49378;SDS011;35254;47.990;-1.608;2023-12-22T12:43:40;11.40;;;3.15;;
49378;SDS011;35254;47.990;-1.608;2023-12-22T12:46:08;8.03;;;2.80;;
49378;SDS011;35254;47.990;-1.608;2023-12-22T12:48:34;5.32;;;2.10;;
49378;SDS011;35254;47.990;-1.608;2023-12-22T12:51:01;5.03;;;2.15;;
49378;SDS011;35254;47.990;-1.608;2023-12-22T12:53:33;5.88;;;2.55;;
49378;SDS011;35254;47.990;-1.608;2023-12-22T12:56:02;7.72;;;2.85;;
49378;SDS011;35254;47.990;-1.608;2023-12-22T12:58:32;5.53;;;1.95;;
49378;SDS011;35254;47.990;-1.608;2023-12-22T13:01:07;5.32;;;1.83;;
49378;SDS011;35254;47.990;-1.608;2023-12-22T13:03:52;5.32;;;2.05;;
49378;SDS011;35254;47.990;-1.608;2023-12-22T13:06:22;8.80;;;2.05;;
49378;SDS011;35254;47.990;-1.608;2023-12-22T13:08:51;5.97;;;1.75;;
49378;SDS011;35254;47.990;-1.608;2023-12-22T13:11:21;5.68;;;2.83;;
49378;SDS011;35254;47.990;-1.608;2023-12-22T13:13:48;6.35;;;2.22;;
49378;SDS011;35254;47.990;-1.608;2023-12-22T13:16:17;6.30;;;2.60;;
49378;SDS011;35254;47.990;-1.608;2023-12-22T13:18:47;8.27;;;2.45;;
49378;SDS011;35254;47.990;-1.608;2023-12-22T13:21:13;8.35;;;2.40;;
49378;SDS011;35254;47.990;-1.608;2023-12-22T13:23:39;7.18;;;1.83;;
49378;SDS011;35254;47.990;-1.608;2023-12-22T13:26:05;6.82;;;1.98;;
49378;SDS011;35254;47.990;-1.608;2023-12-22T13:28:31;6.20;;;2.08;;
49378;SDS011;35254;47.990;-1.608;2023-12-22T13:30:56;9.50;;;2.40;;
49378;SDS011;35254;47.990;-1.608;2023-12-22T13:33:23;6.40;;;2.70;;
49378;SDS011;35254;47.990;-1.608;2023-12-22T13:35:56;3.67;;;1.60;;
49378;SDS011;35254;47.990;-1.608;2023-12-22T13:38:22;7.82;;;2.00;;
49378;SDS011;35254;47.990;-1.608;2023-12-22T13:40:49;3.28;;;1.60;;
49378;SDS011;35254;47.990;-1.608;2023-12-22T13:43:14;6.57;;;1.80;;
49378;SDS011;35254;47.990;-1.608;2023-12-22T13:45:40;5.30;;;2.60;;
49378;SDS011;35254;47.990;-1.608;2023-12-22T13:48:06;7.45;;;2.42;;
49378;SDS011;35254;47.990;-1.608;2023-12-22T13:50:32;6.82;;;2.25;;
49378;SDS011;35254;47.990;-1.608;2023-12-22T13:53:07;5.22;;;2.20;;
49378;SDS011;35254;47.990;-1.608;2023-12-22T13:55:34;4.15;;;1.88;;
49378;SDS011;35254;47.990;-1.608;2023-12-22T13:58:02;6.35;;;2.40;;
49378;SDS011;35254;47.990;-1.608;2023-12-22T14:00:29;3.97;;;1.65;;
49378;SDS011;35254;47.990;-1.608;2023-12-22T14:02:55;8.63;;;1.80;;
49378;SDS011;35254;47.990;-1.608;2023-12-22T14:05:21;6.93;;;1.90;;
49378;SDS011;35254;47.990;-1.608;2023-12-22T14:07:47;4.93;;;1.17;;
49378;SDS011;35254;47.990;-1.608;2023-12-22T14:10:13;4.72;;;1.35;;
49378;SDS011;35254;47.990;-1.608;2023-12-22T14:12:40;6.88;;;1.80;;
49378;SDS011;35254;47.990;-1.608;2023-12-22T14:15:09;11.90;;;3.38;;
49378;SDS011;35254;47.990;-1.608;2023-12-22T14:17:36;6.53;;;2.00;;
49378;SDS011;35254;47.990;-1.608;2023-12-22T14:20:03;7.50;;;2.28;;
49378;SDS011;35254;47.990;-1.608;2023-12-22T14:22:34;6.57;;;2.00;;
49378;SDS011;35254;47.990;-1.608;2023-12-22T14:25:03;6.85;;;1.63;;
49378;SDS011;35254;47.990;-1.608;2023-12-22T14:27:29;8.48;;;1.90;;
49378;SDS011;35254;47.990;-1.608;2023-12-22T14:29:55;6.40;;;2.05;;
49378;SDS011;35254;47.990;-1.608;2023-12-22T14:32:21;6.75;;;1.73;;
49378;SDS011;35254;47.990;-1.608;2023-12-22T14:34:47;4.80;;;1.58;;
49378;SDS011;35254;47.990;-1.608;2023-12-22T14:37:13;3.70;;;1.25;;